Time;durP1;ratioP1;P1;durP2;ratioP2;P2;SDS_P1;SDS_P2;PMS_P1;PMS_P2;Temp;Humidity;BMP_temperature;BMP_pressure;BME280_temperature;BME280_humidity;BME280_pressure;Samples;Min_cycle;Max_cycle;Signal;HPM_P1;HPM_P2
2023/08/01 00:01:34;;;;;;;;;;;;;;;20.67;60.15;99819.56;4851927;28;120136;-71
2023/08/01 00:04:01;;;;;;;;;;;;;;;20.67;60.09;99814.19;4843585;28;119492;-71
2023/08/01 00:06:28;;;;;;;;;;;;;;;20.67;60.18;99819.56;4849276;29;124188;-71
2023/08/01 00:08:55;;;;;;;;;;;;;;;20.67;60.14;99824.97;4851592;28;124258;-71
2023/08/01 00:11:23;;;;;;;;;;;;;;;20.67;60.28;99819.56;4851753;28;119517;-71
2023/08/01 00:13:50;;;;;;;;;;;;;;;20.69;60.18;99817.56;4851970;28;118589;-71
2023/08/01 00:16:17;;;;;;;;;;;;;;;20.69;60.11;99801.41;4847607;28;122946;-71
2023/08/01 00:18:44;;;;;;;;;;;;;;;20.69;60.14;99806.81;4853444;28;126700;-71
2023/08/01 00:21:11;;;;;;;;;;;;;;;20.68;60.06;99809.66;4844076;29;119684;-71
2023/08/01 00:23:38;;;;;;;;;;;;;;;20.66;60.17;99796.34;4850458;28;118292;-72
2023/08/01 00:26:05;;;;;;;;;;;;;;;20.64;60.05;99792.13;4842579;29;124323;-71
2023/08/01 00:28:32;;;;;;;;;;;;;;;20.61;60.19;99787.94;4850887;28;124986;-71
2023/08/01 00:31:03;;;;;;;;;;;;;;;20.61;60.26;99782.56;4849941;29;118231;-71
2023/08/01 00:33:31;;;;;;;;;;;;;;;20.58;60.13;99788.22;4849994;29;118994;-71
2023/08/01 00:35:58;;;;;;;;;;;;;;;20.58;60.26;99780.13;4846985;29;123299;-71
2023/08/01 00:38:25;;;;;;;;;;;;;;;20.57;60.30;99775.78;4834473;29;123389;-71
2023/08/01 00:40:52;;;;;;;;;;;;;;;20.56;60.25;99779.47;4849694;28;118869;-71
2023/08/01 00:43:19;;;;;;;;;;;;;;;20.55;60.27;99784.00;4848451;28;118983;-71
2023/08/01 00:45:46;;;;;;;;;;;;;;;20.54;60.21;99784.16;4848844;29;124176;-70
2023/08/01 00:48:14;;;;;;;;;;;;;;;20.53;60.25;99774.38;4848999;28;122964;-70
2023/08/01 00:50:41;;;;;;;;;;;;;;;20.52;60.26;99775.41;4845944;29;119678;-72
2023/08/01 00:53:08;;;;;;;;;;;;;;;20.49;60.38;99768.47;4848965;28;118293;-72
2023/08/01 00:55:37;;;;;;;;;;;;;;;20.48;60.27;99772.19;4844475;28;125103;-72
2023/08/01 00:58:04;;;;;;;;;;;;;;;20.49;60.30;99762.25;4846604;28;122884;-72
2023/08/01 01:00:32;;;;;;;;;;;;;;;20.48;60.31;99757.91;4847455;28;119591;-72
2023/08/01 01:03:00;;;;;;;;;;;;;;;20.46;60.24;99762.59;4840622;28;120198;-71
2023/08/01 01:05:31;;;;;;;;;;;;;;;20.45;60.29;99758.22;4848297;28;122985;-70
2023/08/01 01:07:59;;;;;;;;;;;;;;;20.45;60.36;99766.28;4846139;28;123205;-70
2023/08/01 01:10:26;;;;;;;;;;;;;;;20.47;60.30;99764.28;4851037;28;119699;-70
2023/08/01 01:12:55;;;;;;;;;;;;;;;20.46;60.30;99759.91;4849739;28;119427;-70
2023/08/01 01:15:22;;;;;;;;;;;;;;;20.45;60.36;99760.91;4854196;28;124259;-70
2023/08/01 01:17:49;;;;;;;;;;;;;;;20.46;60.30;99768.00;4839284;29;123172;-70
2023/08/01 01:20:19;;;;;;;;;;;;;;;20.42;60.32;99768.28;4846283;28;120140;-70
2023/08/01 01:22:46;;;;;;;;;;;;;;;20.40;60.34;99770.31;4849788;28;119318;-70
2023/08/01 01:25:15;;;;;;;;;;;;;;;20.39;60.32;99765.91;4846520;29;123719;-70
2023/08/01 01:27:42;;;;;;;;;;;;;;;20.39;60.43;99763.22;4849968;28;126522;-70
2023/08/01 01:30:09;;;;;;;;;;;;;;;20.39;60.29;99752.47;4851622;29;119773;-70
2023/08/01 01:32:37;;;;;;;;;;;;;;;20.40;60.42;99764.91;4844757;28;118767;-70
2023/08/01 01:35:05;;;;;;;;;;;;;;;20.40;60.41;99754.16;4855139;28;123480;-70
2023/08/01 01:37:32;;;;;;;;;;;;;;;20.39;60.38;99757.84;4835702;29;122955;-70
2023/08/01 01:39:59;;;;;;;;;;;;;;;20.38;60.39;99745.41;4847925;29;119764;-70
2023/08/01 01:42:26;;;;;;;;;;;;;;;20.36;60.35;99752.81;4842967;28;118956;-70
2023/08/01 01:44:53;;;;;;;;;;;;;;;20.35;60.42;99759.16;4854120;28;123139;-70
2023/08/01 01:47:20;;;;;;;;;;;;;;;20.33;60.35;99758.50;4846464;29;123107;-70
2023/08/01 01:49:47;;;;;;;;;;;;;;;20.32;60.42;99751.41;4839285;29;120512;-70
2023/08/01 01:52:15;;;;;;;;;;;;;;;20.32;60.44;99751.41;4851748;29;118705;-70
2023/08/01 01:54:42;;;;;;;;;;;;;;;20.31;60.38;99741.66;4850327;28;124697;-70
2023/08/01 01:57:09;;;;;;;;;;;;;;;20.29;60.27;99751.75;4850030;28;124089;-70
2023/08/01 01:59:36;;;;;;;;;;;;;;;20.24;60.26;99743.31;4847482;28;118412;-70
2023/08/01 02:02:04;;;;;;;;;;;;;;;20.21;60.40;99744.47;4852177;28;118418;-70
2023/08/01 02:04:32;;;;;;;;;;;;;;;20.18;60.38;99738.56;4842463;28;123059;-70
2023/08/01 02:06:59;;;;;;;;;;;;;;;20.15;60.29;99744.25;4843731;28;122911;-70
2023/08/01 02:09:26;;;;;;;;;;;;;;;20.13;60.39;99746.25;4844601;28;118668;-71
2023/08/01 02:11:54;;;;;;;;;;;;;;;20.10;60.37;99746.56;4855017;28;118141;-70
2023/08/01 02:14:21;;;;;;;;;;;;;;;20.06;60.42;99734.44;4851864;28;123550;-70
2023/08/01 02:16:48;;;;;;;;;;;;;;;20.01;60.38;99749.19;4848600;28;125029;-70
2023/08/01 02:19:16;;;;;;;;;;;;;;;19.99;60.46;99748.53;4853338;29;118469;-71
2023/08/01 02:21:43;;;;;;;;;;;;;;;19.98;60.52;99749.50;4852661;29;118439;-71
2023/08/01 02:24:11;;;;;;;;;;;;;;;19.97;60.33;99750.53;4838597;29;124360;-71
2023/08/01 02:26:38;;;;;;;;;;;;;;;19.94;60.50;99742.75;4847537;29;125167;-71
2023/08/01 02:29:05;;;;;;;;;;;;;;;19.93;60.56;99741.09;4853420;28;119631;-70
2023/08/01 02:31:32;;;;;;;;;;;;;;;19.92;60.55;99744.75;4853627;28;117904;-71
2023/08/01 02:33:59;;;;;;;;;;;;;;;19.91;60.56;99751.16;4848071;28;125019;-71
2023/08/01 02:36:27;;;;;;;;;;;;;;;19.90;60.59;99752.16;4840785;28;124080;-71
2023/08/01 02:38:54;;;;;;;;;;;;;;;19.89;60.60;99755.84;4849728;28;121045;-72
2023/08/01 02:41:21;;;;;;;;;;;;;;;19.89;60.66;99760.34;4851284;29;118729;-72
2023/08/01 02:43:48;;;;;;;;;;;;;;;19.89;60.55;99761.22;4852261;29;123461;-72
2023/08/01 02:46:15;;;;;;;;;;;;;;;19.89;60.54;99750.47;4854258;28;124370;-72
2023/08/01 02:48:42;;;;;;;;;;;;;;;19.89;60.67;99755.84;4843119;29;120186;-72
2023/08/01 02:51:09;;;;;;;;;;;;;;;19.88;60.62;99758.69;4845115;29;119577;-72
2023/08/01 02:53:37;;;;;;;;;;;;;;;19.86;60.53;99761.53;4844839;29;123478;-72
2023/08/01 02:56:07;;;;;;;;;;;;;;;19.86;60.47;99764.22;4848698;28;124795;-72
2023/08/01 02:58:34;;;;;;;;;;;;;;;19.84;60.62;99758.16;4845101;29;119469;-72
2023/08/01 03:01:06;;;;;;;;;;;;;;;19.83;60.47;99761.81;4852202;28;118306;-72
2023/08/01 03:03:35;;;;;;;;;;;;;;;19.83;60.62;99761.81;4851488;29;123101;-72
2023/08/01 03:06:05;;;;;;;;;;;;;;;19.81;60.65;99775.41;4850123;29;122654;-72
2023/08/01 03:08:32;;;;;;;;;;;;;;;19.79;60.48;99772.03;4848333;28;118336;-72
2023/08/01 03:10:59;;;;;;;;;;;;;;;19.79;60.55;99776.56;4848722;29;118126;-72
2023/08/01 03:13:26;;;;;;;;;;;;;;;19.76;60.62;99766.13;4838484;29;123748;-72
2023/08/01 03:15:53;;;;;;;;;;;;;;;19.74;60.56;99770.81;4851436;29;123701;-72
2023/08/01 03:18:22;;;;;;;;;;;;;;;19.72;60.52;99759.34;4853329;29;118621;-72
2023/08/01 03:20:49;;;;;;;;;;;;;;;19.71;60.66;99757.69;4842184;28;117605;-72
2023/08/01 03:23:18;;;;;;;;;;;;;;;19.70;60.68;99761.34;4838975;29;124347;-72
2023/08/01 03:25:45;;;;;;;;;;;;;;;19.68;60.69;99753.44;4853176;28;123692;-71
2023/08/01 03:28:12;;;;;;;;;;;;;;;19.66;60.73;99755.44;4851657;29;120520;-72
2023/08/01 03:30:39;;;;;;;;;;;;;;;19.64;60.64;99758.28;4851868;29;119741;-72
2023/08/01 03:33:06;;;;;;;;;;;;;;;19.63;60.67;99756.59;4853681;28;123855;-72
2023/08/01 03:35:33;;;;;;;;;;;;;;;19.61;60.62;99753.22;4849960;28;123069;-71
2023/08/01 03:38:02;;;;;;;;;;;;;;;19.58;60.67;99750.84;4853792;29;118773;-72
2023/08/01 03:40:29;;;;;;;;;;;;;;;19.56;60.67;99760.91;4850150;28;118503;-72
2023/08/01 03:42:56;;;;;;;;;;;;;;;19.54;60.65;99768.25;4851750;28;124164;-72
2023/08/01 03:45:23;;;;;;;;;;;;;;;19.52;60.51;99774.81;4828734;29;122860;-72
2023/08/01 03:47:51;;;;;;;;;;;;;;;19.50;60.63;99766.88;4847404;28;119847;-72
2023/08/01 03:50:18;;;;;;;;;;;;;;;19.47;60.65;99772.56;4833880;29;117776;-72
2023/08/01 03:52:51;;;;;;;;;;;;;;;19.48;60.79;99779.63;4849587;28;123974;-72
2023/08/01 03:55:18;;;;;;;;;;;;;;;19.47;60.63;99767.19;4853634;28;122993;-72
2023/08/01 03:57:45;;;;;;;;;;;;;;;19.45;60.86;99775.38;4852712;29;118849;-72
2023/08/01 04:00:13;;;;;;;;;;;;;;;19.45;60.89;99774.56;4853039;28;117838;-72
2023/08/01 04:02:41;;;;;;;;;;;;;;;19.45;60.85;99769.19;4852597;28;124056;-72
2023/08/01 04:05:12;;;;;;;;;;;;;;;19.43;60.83;99771.19;4850829;29;124168;-71
2023/08/01 04:07:40;;;;;;;;;;;;;;;19.44;60.93;99762.13;4851585;29;118394;-72
2023/08/01 04:10:08;;;;;;;;;;;;;;;19.43;60.78;99771.19;4853159;28;119155;-72
2023/08/01 04:12:35;;;;;;;;;;;;;;;19.42;60.96;99774.84;4849709;28;125063;-72
2023/08/01 04:15:02;;;;;;;;;;;;;;;19.42;60.83;99777.53;4845337;28;124305;-71
2023/08/01 04:17:29;;;;;;;;;;;;;;;19.42;60.87;99780.22;4846308;28;121500;-72
2023/08/01 04:19:56;;;;;;;;;;;;;;;19.42;60.89;99766.78;4841188;29;118735;-73
2023/08/01 04:22:23;;;;;;;;;;;;;;;19.44;60.75;99778.25;4848080;28;125077;-72
2023/08/01 04:24:50;;;;;;;;;;;;;;;19.45;60.89;99774.56;4858638;28;124546;-72
2023/08/01 04:27:17;;;;;;;;;;;;;;;19.46;61.02;99781.63;4852008;28;119466;-72
2023/08/01 04:29:45;;;;;;;;;;;;;;;19.47;60.96;99775.25;4851629;28;118665;-72
2023/08/01 04:32:14;;;;;;;;;;;;;;;19.47;61.00;99772.56;4834507;29;123897;-72
2023/08/01 04:34:41;;;;;;;;;;;;;;;19.50;61.08;99776.78;4848751;28;124267;-72
2023/08/01 04:37:10;;;;;;;;;;;;;;;19.53;60.99;99782.69;4850424;29;119880;-72
2023/08/01 04:39:37;;;;;;;;;;;;;;;19.55;60.98;99775.34;4851498;28;119258;-72
2023/08/01 04:42:04;;;;;;;;;;;;;;;19.57;61.07;99778.72;4850886;28;124382;-72
2023/08/01 04:44:31;;;;;;;;;;;;;;;19.58;60.95;99780.38;4847927;29;123185;-72
2023/08/01 04:46:58;;;;;;;;;;;;;;;19.59;61.14;99779.41;4852989;29;119490;-73
2023/08/01 04:49:26;;;;;;;;;;;;;;;19.61;61.07;99774.72;4846729;28;118459;-72
2023/08/01 04:51:53;;;;;;;;;;;;;;;19.62;60.96;99776.38;4850879;28;123133;-71
2023/08/01 04:54:20;;;;;;;;;;;;;;;19.62;60.94;99775.56;4834510;28;124702;-71
2023/08/01 04:56:47;;;;;;;;;;;;;;;19.63;60.95;99772.72;4838969;28;119626;-71
2023/08/01 04:59:15;;;;;;;;;;;;;;;19.65;61.11;99776.09;4848511;29;119028;-71
2023/08/01 05:01:42;;;;;;;;;;;;;;;19.67;60.98;99778.63;4852172;28;123328;-71
2023/08/01 05:04:09;;;;;;;;;;;;;;;19.69;61.04;99778.47;4849527;29;123856;-71
2023/08/01 05:06:36;;;;;;;;;;;;;;;19.71;60.99;99780.00;4852107;29;118600;-71
2023/08/01 05:09:04;;;;;;;;;;;;;;;19.75;61.09;99791.31;4836972;29;118916;-71
2023/08/01 05:11:31;;;;;;;;;;;;;;;19.77;61.10;99790.16;4848361;29;125093;-71
2023/08/01 05:13:58;;;;;;;;;;;;;;;19.82;61.11;99789.72;4852888;28;123632;-71
2023/08/01 05:16:25;;;;;;;;;;;;;;;19.86;61.21;99788.41;4842728;28;119775;-71
2023/08/01 05:18:52;;;;;;;;;;;;;;;19.89;61.09;99788.09;4847551;28;118845;-71
2023/08/01 05:21:19;;;;;;;;;;;;;;;19.94;61.13;99791.13;4854967;28;124449;-71
2023/08/01 05:23:46;;;;;;;;;;;;;;;19.95;60.95;99792.84;4851240;28;125123;-71
2023/08/01 05:26:13;;;;;;;;;;;;;;;19.96;61.08;99778.38;4845981;28;120731;-71
2023/08/01 05:28:40;;;;;;;;;;;;;;;19.98;61.09;99786.28;4844743;28;118528;-72
2023/08/01 05:31:07;;;;;;;;;;;;;;;19.96;61.01;99794.50;4845947;29;124499;-72
2023/08/01 05:33:34;;;;;;;;;;;;;;;19.95;60.90;99787.47;4839414;29;123987;-73
2023/08/01 05:36:01;;;;;;;;;;;;;;;19.93;60.82;99800.22;4841607;29;119789;-72
2023/08/01 05:38:28;;;;;;;;;;;;;;;19.93;60.97;99794.84;4837871;29;119518;-72
2023/08/01 05:40:55;;;;;;;;;;;;;;;19.92;61.04;99798.50;4843451;28;124277;-71
2023/08/01 05:43:22;;;;;;;;;;;;;;;19.93;60.97;99789.47;4847517;29;126173;-71
2023/08/01 05:45:49;;;;;;;;;;;;;;;19.96;61.13;99799.06;4853051;28;119961;-71
2023/08/01 05:48:19;;;;;;;;;;;;;;;19.97;61.11;99801.59;4831085;29;118564;-72
2023/08/01 05:50:46;;;;;;;;;;;;;;;20.01;61.13;99799.44;4847146;28;125251;-71
2023/08/01 05:53:13;;;;;;;;;;;;;;;20.01;61.06;99797.59;4840412;29;125066;-72
2023/08/01 05:55:40;;;;;;;;;;;;;;;20.05;61.20;99798.13;4846759;28;120794;-72
2023/08/01 05:58:07;;;;;;;;;;;;;;;20.10;61.13;99805.69;4842442;28;119937;-71
2023/08/01 06:00:34;;;;;;;;;;;;;;;20.14;61.09;99804.41;4839668;28;123119;-72
2023/08/01 06:03:01;;;;;;;;;;;;;;;20.18;61.20;99803.09;4845093;29;124275;-72
2023/08/01 06:05:28;;;;;;;;;;;;;;;20.22;61.20;99810.69;4845192;29;119445;-72
2023/08/01 06:07:55;;;;;;;;;;;;;;;20.30;61.26;99801.81;4845903;29;118895;-72
2023/08/01 06:10:22;;;;;;;;;;;;;;;20.35;61.26;99807.56;4838971;28;124367;-72
2023/08/01 06:12:50;;;;;;;;;;;;;;;20.39;61.21;99811.63;4845590;29;124217;-72
2023/08/01 06:15:21;;;;;;;;;;;;;;;20.43;61.15;99818.38;4844272;29;119622;-72
2023/08/01 06:17:50;;;;;;;;;;;;;;;20.49;61.12;99826.81;4844394;29;118299;-72
2023/08/01 06:20:17;;;;;;;;;;;;;;;20.53;61.16;99822.81;4852778;29;123173;-72
2023/08/01 06:22:46;;;;;;;;;;;;;;;20.55;61.02;99826.19;4850641;29;123731;-71
2023/08/01 06:25:13;;;;;;;;;;;;;;;20.56;60.97;99838.66;4852090;29;119546;-71
2023/08/01 06:27:40;;;;;;;;;;;;;;;20.55;60.88;99836.94;4858426;28;117713;-72
2023/08/01 06:30:08;;;;;;;;;;;;;;;20.55;60.99;99836.94;4846474;28;124703;-71
2023/08/01 06:32:35;;;;;;;;;;;;;;;20.56;60.86;99838.66;4845191;29;122729;-71
2023/08/01 06:35:02;;;;;;;;;;;;;;;20.58;60.93;99839.31;4849871;29;119646;-71
2023/08/01 06:37:29;;;;;;;;;;;;;;;20.58;61.02;99832.09;4846613;28;119058;-71
2023/08/01 06:39:57;;;;;;;;;;;;;;;20.61;60.96;99830.97;4843700;28;124524;-71
2023/08/01 06:42:24;;;;;;;;;;;;;;;20.64;60.97;99830.66;4844035;28;123808;-71
2023/08/01 06:44:52;;;;;;;;;;;;;;;20.68;61.00;99832.03;4845876;29;120588;-71
2023/08/01 06:47:19;;;;;;;;;;;;;;;20.74;61.09;99831.38;4848263;28;119016;-71
2023/08/01 06:49:46;;;;;;;;;;;;;;;20.79;61.16;99822.81;4838044;29;123969;-71
2023/08/01 06:52:13;;;;;;;;;;;;;;;20.88;61.23;99831.78;4849466;28;124031;-71
2023/08/01 06:54:40;;;;;;;;;;;;;;;20.98;61.21;99837.88;4848319;28;119560;-71
2023/08/01 06:57:07;;;;;;;;;;;;;;;21.07;61.19;99842.31;4847022;29;117888;-71
2023/08/01 06:59:34;;;;;;;;;;;;;;;21.13;61.08;99836.25;4848004;29;124298;-71
2023/08/01 07:02:01;;;;;;;;;;;;;;;21.21;61.13;99838.16;4846605;28;124302;-71
2023/08/01 07:04:28;;;;;;;;;;;;;;;21.29;61.10;99842.75;4851489;29;118410;-72
2023/08/01 07:06:55;;;;;;;;;;;;;;;21.35;61.21;99844.78;4847358;28;117908;-71
2023/08/01 07:09:22;;;;;;;;;;;;;;;21.39;61.00;99848.81;4845402;29;124429;-71
2023/08/01 07:11:50;;;;;;;;;;;;;;;21.41;60.92;99846.81;4846604;28;124252;-72
2023/08/01 07:14:17;;;;;;;;;;;;;;;21.43;60.67;99858.25;4851927;28;119266;-73
2023/08/01 07:16:45;;;;;;;;;;;;;;;21.42;60.79;99856.59;4853268;28;118709;-73
2023/08/01 07:19:12;;;;;;;;;;;;;;;21.44;60.76;99865.38;4851916;28;124202;-73
2023/08/01 07:21:39;;;;;;;;;;;;;;;21.42;60.66;99856.59;4854546;28;123994;-73
2023/08/01 07:24:06;;;;;;;;;;;;;;;21.42;60.73;99856.59;4852279;28;119954;-73
2023/08/01 07:26:33;;;;;;;;;;;;;;;21.43;60.68;99863.66;4847970;28;118879;-74
2023/08/01 07:29:00;;;;;;;;;;;;;;;21.45;60.80;99861.66;4851546;28;124394;-73
2023/08/01 07:31:29;;;;;;;;;;;;;;;21.53;60.87;99863.53;4853744;28;123637;-72
2023/08/01 07:33:56;;;;;;;;;;;;;;;21.65;60.92;99856.00;4852565;29;120138;-73
2023/08/01 07:36:24;;;;;;;;;;;;;;;21.77;61.06;99849.28;4837653;29;119153;-73
2023/08/01 07:38:51;;;;;;;;;;;;;;;21.92;61.04;99857.53;4849570;28;123554;-73
2023/08/01 07:41:18;;;;;;;;;;;;;;;22.03;61.00;99848.28;4842959;28;124122;-73
2023/08/01 07:43:45;;;;;;;;;;;;;;;22.15;60.97;99846.94;4843388;28;118710;-73
2023/08/01 07:46:12;;;;;;;;;;;;;;;22.30;61.01;99844.44;4854585;29;118795;-73
2023/08/01 07:48:39;;;;;;;;;;;;;;;22.45;61.13;99841.88;4851677;28;124406;-73
2023/08/01 07:51:07;;;;;;;;;;;;;;;22.55;60.83;99842.56;4853573;28;123597;-73
2023/08/01 07:53:37;;;;;;;;;;;;;;;22.65;60.82;99848.59;4853837;28;118128;-73
2023/08/01 07:56:07;;;;;;;;;;;;;;;22.72;60.54;99849.59;4862352;28;118661;-73
2023/08/01 07:58:34;;;;;;;;;;;;;;;22.76;60.52;99849.28;4850764;28;124946;-73
2023/08/01 08:01:05;;;;;;;;;;;;;;;22.81;60.48;99849.56;4853112;28;123893;-74
2023/08/01 08:03:32;;;;;;;;;;;;;;;22.82;60.35;99843.16;4861237;28;119431;-73
2023/08/01 08:05:59;;;;;;;;;;;;;;;22.77;59.96;99851.78;4837487;29;117783;-73
2023/08/01 08:08:27;;;;;;;;;;;;;;;22.70;59.94;99859.75;4846940;28;124148;-73
2023/08/01 08:10:53;;;;;;;;;;;;;;;22.63;59.75;99845.22;4851459;28;124320;-73
2023/08/01 08:13:20;;;;;;;;;;;;;;;22.53;59.76;99858.09;4852220;28;118350;-73
2023/08/01 08:15:49;;;;;;;;;;;;;;;22.47;59.96;99859.63;4858773;28;119196;-73
2023/08/01 08:18:16;;;;;;;;;;;;;;;22.43;59.86;99865.50;4848438;28;124405;-73
2023/08/01 08:20:48;;;;;;;;;;;;;;;22.41;60.02;99862.13;4849646;28;124192;-74
2023/08/01 08:23:15;;;;;;;;;;;;;;;22.37;60.08;99867.03;4852040;28;120582;-73
2023/08/01 08:25:44;;;;;;;;;;;;;;;22.33;60.03;99871.91;4851903;28;120443;-73
2023/08/01 08:28:12;;;;;;;;;;;;;;;22.26;59.89;99876.28;4838963;28;126142;-73
2023/08/01 08:30:39;;;;;;;;;;;;;;;22.18;59.94;99889.75;4839448;29;124219;-73
2023/08/01 08:33:06;;;;;;;;;;;;;;;22.10;59.87;99876.28;4852877;29;119335;-73
2023/08/01 08:35:35;;;;;;;;;;;;;;;22.04;59.91;99876.94;4850125;29;118815;-73
2023/08/01 08:38:03;;;;;;;;;;;;;;;21.99;59.84;99884.69;4847737;28;124162;-73
2023/08/01 08:40:33;;;;;;;;;;;;;;;21.90;59.81;99865.78;4850293;28;124141;-73
2023/08/01 08:43:01;;;;;;;;;;;;;;;21.81;59.96;99861.41;4851844;28;119412;-73
2023/08/01 08:45:31;;;;;;;;;;;;;;;21.78;59.96;99856.38;4848247;28;118794;-74
2023/08/01 08:48:00;;;;;;;;;;;;;;;21.72;60.02;99865.13;4848612;29;124147;-73
2023/08/01 08:50:30;;;;;;;;;;;;;;;21.66;60.00;99868.44;4845497;29;124112;-74
2023/08/01 08:52:58;;;;;;;;;;;;;;;21.60;60.04;99885.28;4841942;29;120187;-73
2023/08/01 08:55:26;;;;;;;;;;;;;;;21.53;59.99;99880.56;4850464;29;118616;-74
2023/08/01 08:57:54;;;;;;;;;;;;;;;21.47;59.91;99865.03;4848449;28;124994;-75
2023/08/01 09:00:22;;;;;;;;;;;;;;;21.44;60.26;99870.75;4851673;28;124100;-74
2023/08/01 09:02:53;;;;;;;;;;;;;;;21.41;60.06;99871.03;4854735;28;118977;-72
2023/08/01 09:05:26;;;;;;;;;;;;;;;21.37;59.99;99885.84;4852567;28;118840;-73
2023/08/01 09:07:56;;;;;;;;;;;;;;;21.34;60.11;99891.56;4860218;28;123554;-73
2023/08/01 09:10:23;;;;;;;;;;;;;;;21.30;60.09;99906.34;4853054;28;125007;-73
2023/08/01 09:12:50;;;;;;;;;;;;;;;21.26;60.21;99910.38;4844514;29;119283;-73
2023/08/01 09:15:17;;;;;;;;;;;;;;;21.20;60.05;99918.09;4846525;28;120369;-73
2023/08/01 09:17:56;;;;;;;;;;;;;;;21.14;60.14;99915.22;4843442;29;124245;-73
2023/08/01 09:20:23;;;;;;;;;;;;;;;21.05;60.05;99903.53;4848468;29;123954;-73
2023/08/01 09:22:50;;;;;;;;;;;;;;;20.96;60.04;99909.88;4844219;28;119766;-74
2023/08/01 09:25:17;;;;;;;;;;;;;;;20.88;60.06;99902.63;4851160;28;118781;-74
2023/08/01 09:27:45;;;;;;;;;;;;;;;20.82;60.15;99902.41;4850177;29;124585;-74
2023/08/01 09:30:15;;;;;;;;;;;;;;;20.78;60.37;99897.34;4843201;28;124483;-74
2023/08/01 09:32:55;;;;;;;;;;;;;;;20.82;60.51;99899.72;4845382;29;120309;-75
2023/08/01 09:35:23;;;;;;;;;;;;;;;20.88;60.69;99901.78;4853266;28;117817;-74
2023/08/01 09:37:50;;;;;;;;;;;;;;;20.96;60.77;99909.88;4850155;29;125081;-75
2023/08/01 09:40:19;;;;;;;;;;;;;;;21.05;60.65;99913.47;4853425;29;125071;-75
2023/08/01 09:42:46;;;;;;;;;;;;;;;21.07;60.54;99923.06;4853910;29;119843;-74
2023/08/01 09:45:14;;;;;;;;;;;;;;;21.08;60.43;99908.63;4854186;28;119029;-75
2023/08/01 09:47:41;;;;;;;;;;;;;;;21.07;60.31;99923.06;4846253;28;125038;-75
2023/08/01 09:50:09;;;;;;;;;;;;;;;21.04;60.34;99922.56;4847986;28;123947;-75
2023/08/01 09:52:37;;;;;;;;;;;;;;;21.02;60.46;99920.03;4844713;28;119433;-74
2023/08/01 09:55:04;;;;;;;;;;;;;;;21.00;60.48;99924.72;4853798;29;118628;-74
2023/08/01 09:57:31;;;;;;;;;;;;;;;21.00;60.50;99927.41;4845699;28;124366;-73
2023/08/01 09:59:59;;;;;;;;;;;;;;;20.99;60.40;99931.94;4855068;28;124477;-73
2023/08/01 10:02:29;;;;;;;;;;;;;;;20.98;60.41;99935.66;4856035;28;120864;-73
2023/08/01 10:04:57;;;;;;;;;;;;;;;20.98;60.46;99934.81;4854287;29;119900;-73
2023/08/01 10:07:26;;;;;;;;;;;;;;;20.98;60.57;99937.50;4850052;29;124386;-73
2023/08/01 10:09:58;;;;;;;;;;;;;;;21.03;60.71;99926.25;4854370;28;124562;-73
2023/08/01 10:12:25;;;;;;;;;;;;;;;21.10;60.82;99928.16;4849714;29;119548;-73
2023/08/01 10:14:53;;;;;;;;;;;;;;;21.19;60.88;99934.41;4850899;28;119117;-73
2023/08/01 10:17:21;;;;;;;;;;;;;;;21.29;60.81;99937.00;4851326;28;125204;-72
2023/08/01 10:19:49;;;;;;;;;;;;;;;21.36;60.92;99938.03;4851359;28;123669;-72
2023/08/01 10:22:17;;;;;;;;;;;;;;;21.45;60.88;99934.41;4854025;28;118482;-72
2023/08/01 10:24:45;;;;;;;;;;;;;;;21.60;60.96;99933.78;4846722;28;118617;-72
2023/08/01 10:27:14;;;;;;;;;;;;;;;21.74;61.11;99935.88;4844545;29;123085;-72
2023/08/01 10:29:42;;;;;;;;;;;;;;;21.90;61.12;99933.19;4852092;28;124105;-72
2023/08/01 10:32:10;;;;;;;;;;;;;;;22.02;60.92;99938.28;4855145;28;119806;-72
2023/08/01 10:34:37;;;;;;;;;;;;;;;22.11;60.71;99934.59;4847458;29;118679;-72
2023/08/01 10:37:04;;;;;;;;;;;;;;;22.26;60.86;99935.63;4843831;29;124004;-72
2023/08/01 10:39:31;;;;;;;;;;;;;;;22.44;61.00;99927.41;4841059;28;124974;-73
2023/08/01 10:41:59;;;;;;;;;;;;;;;22.62;61.07;99929.06;4850528;28;119759;-73
2023/08/01 10:44:26;;;;;;;;;;;;;;;22.80;61.00;99928.91;4851276;29;118720;-72
2023/08/01 10:47:01;;;;;;;;;;;;;;;22.97;61.00;99925.16;4842243;29;122926;-73
2023/08/01 10:49:34;;;;;;;;;;;;;;;23.12;60.71;99926.16;4850004;28;124533;-73
2023/08/01 10:52:02;;;;;;;;;;;;;;;23.24;60.63;99933.88;4865240;28;119598;-73
2023/08/01 10:54:31;;;;;;;;;;;;;;;23.36;60.63;99939.75;4851326;28;119295;-73
2023/08/01 10:56:58;;;;;;;;;;;;;;;23.46;60.68;99930.41;4842660;28;124409;-73
2023/08/01 10:59:25;;;;;;;;;;;;;;;23.57;60.44;99931.06;4847729;28;124468;-73
2023/08/01 11:01:53;;;;;;;;;;;;;;;23.62;59.99;99925.94;4854003;28;120320;-74
2023/08/01 11:04:21;;;;;;;;;;;;;;;23.62;59.85;99936.75;4856011;28;118726;-73
2023/08/01 11:06:49;;;;;;;;;;;;;;;23.51;59.41;99963.19;4852499;29;124493;-74
2023/08/01 11:09:18;;;;;;;;;;;;;;;23.42;59.48;99957.97;4848633;28;124984;-73
2023/08/01 11:11:47;;;;;;;;;;;;;;;23.31;59.36;99951.09;4852480;28;119164;-74
2023/08/01 11:14:14;;;;;;;;;;;;;;;23.23;59.56;99959.22;4849305;28;118686;-73
2023/08/01 11:16:43;;;;;;;;;;;;;;;23.18;59.65;99950.78;4849688;29;124297;-73
2023/08/01 11:19:20;;;;;;;;;;;;;;;23.16;59.52;99958.22;4845583;28;123159;-73
2023/08/01 11:21:47;;;;;;;;;;;;;;;23.24;59.87;99963.59;4848453;28;119730;-73
2023/08/01 11:24:14;;;;;;;;;;;;;;;23.36;60.27;99959.53;4844676;28;119383;-73
2023/08/01 11:26:45;;;;;;;;;;;;;;;23.50;60.38;99961.47;4850908;29;123872;-73
2023/08/01 11:29:13;;;;;;;;;;;;;;;23.64;60.37;99961.75;4853684;28;124922;-73
2023/08/01 11:31:41;;;;;;;;;;;;;;;23.72;60.17;99959.03;4858178;28;119886;-73
2023/08/01 11:34:12;;;;;;;;;;;;;;;23.79;59.88;99960.06;4855106;29;117369;-73
2023/08/01 11:36:39;;;;;;;;;;;;;;;23.87;60.01;99962.69;4850444;29;123691;-73
2023/08/01 11:39:08;;;;;;;;;;;;;;;24.00;60.03;99966.72;4853834;28;124017;-73
2023/08/01 11:41:35;;;;;;;;;;;;;;;24.15;59.97;99964.91;4840605;29;120899;-73
2023/08/01 11:44:04;;;;;;;;;;;;;;;24.28;60.09;99970.56;4845811;29;119619;-73
2023/08/01 11:46:32;;;;;;;;;;;;;;;24.39;59.95;99960.34;4848926;29;124158;-75
2023/08/01 11:49:03;;;;;;;;;;;;;;;24.43;59.35;99961.66;4858259;28;124914;-74
2023/08/01 11:51:30;;;;;;;;;;;;;;;24.41;59.10;99963.69;4844661;28;117530;-74
2023/08/01 11:54:02;;;;;;;;;;;;;;;24.38;59.40;99964.09;4849821;28;118767;-75
2023/08/01 11:56:30;;;;;;;;;;;;;;;24.44;59.51;99979.59;4852528;28;124299;-75
2023/08/01 11:58:58;;;;;;;;;;;;;;;24.50;59.14;99968.03;4852100;29;124544;-74
2023/08/01 12:01:25;;;;;;;;;;;;;;;24.59;59.50;99971.56;4840277;29;119754;-76
2023/08/01 12:04:16;;;;;;;;;;;;;;;24.65;59.20;99971.66;4860903;23;118887;-74
2023/08/01 12:06:43;;;;;;;;;;;;;;;24.64;59.08;99969.97;4852959;29;123568;-75
2023/08/01 12:09:15;;;;;;;;;;;;;;;24.62;58.88;99972.03;4850896;28;124400;-73
2023/08/01 12:12:01;;;;;;;;;;;;;;;24.59;58.85;99980.50;4859875;23;118620;-74
2023/08/01 12:14:29;;;;;;;;;;;;;;;24.51;58.83;99977.84;4858509;23;119546;-80
2023/08/01 12:16:56;;;;;;;;;;;;;;;24.42;58.61;99976.22;4851826;28;122300;-80
2023/08/01 12:19:23;;;;;;;;;;;;;;;24.31;58.49;99987.47;4861395;29;123708;-80
2023/08/01 12:21:50;;;;;;;;;;;;;;;24.23;58.68;99983.78;4859060;28;117205;-79
2023/08/01 12:24:17;;;;;;;;;;;;;;;24.22;58.72;99992.94;4846853;28;118148;-79
2023/08/01 12:26:44;;;;;;;;;;;;;;;24.20;58.75;99989.56;4860761;28;124315;-79
2023/08/01 12:29:11;;;;;;;;;;;;;;;24.21;58.87;99991.25;4856281;28;124139;-78
2023/08/01 12:31:38;;;;;;;;;;;;;;;24.26;58.78;99999.69;4853083;28;120080;-78
2023/08/01 12:34:05;;;;;;;;;;;;;;;24.34;58.96;100000.66;4845606;28;118813;-79
2023/08/01 12:36:33;;;;;;;;;;;;;;;24.44;59.01;100001.25;4846913;28;124520;-78
2023/08/01 12:39:00;;;;;;;;;;;;;;;24.59;58.97;100004.88;4849823;28;124850;-79